Time;durP1;ratioP1;P1;durP2;ratioP2;P2;SDS_P1;SDS_P2;PMS_P1;PMS_P2;Temp;Humidity;BMP_temperature;BMP_pressure;BME280_temperature;BME280_humidity;BME280_pressure;Samples;Min_cycle;Max_cycle;Signal;HPM_P1;HPM_P2
2023/05/09 00:00:17;;;;;;;72.40;37.22;;;15.90;99.90;;;;;;5038830;28;20047;-88
2023/05/09 00:02:44;;;;;;;64.43;36.95;;;15.90;99.90;;;;;;5053436;28;20109;-90
2023/05/09 00:05:10;;;;;;;67.03;37.95;;;15.90;99.90;;;;;;5076705;28;20040;-88
2023/05/09 00:07:36;;;;;;;68.00;38.90;;;15.80;99.90;;;;;;5059831;28;20033;-89
2023/05/09 00:10:02;;;;;;;72.85;39.75;;;15.80;99.90;;;;;;5053921;28;20503;-90
2023/05/09 00:12:28;;;;;;;75.95;40.30;;;15.80;99.90;;;;;;5055508;28;20068;-88
2023/05/09 00:14:55;;;;;;;67.35;37.97;;;15.80;99.90;;;;;;5039656;28;20087;-89
2023/05/09 00:17:22;;;;;;;69.43;37.25;;;15.80;99.90;;;;;;5022679;28;20037;-89
2023/05/09 00:19:49;;;;;;;65.43;36.97;;;15.80;99.90;;;;;;5055920;28;20496;-89
2023/05/09 00:22:17;;;;;;;67.50;38.95;;;15.80;99.90;;;;;;5054813;28;20071;-89
2023/05/09 00:24:43;;;;;;;69.68;38.05;;;15.80;99.90;;;;;;5040132;28;20048;-88
2023/05/09 00:27:09;;;;;;;69.93;39.08;;;15.80;99.90;;;;;;5062457;28;20033;-87
2023/05/09 00:29:35;;;;;;;66.70;38.33;;;15.80;99.90;;;;;;5074344;28;20044;-88
2023/05/09 00:32:01;;;;;;;71.20;38.08;;;15.80;99.90;;;;;;5057739;28;20408;-90
2023/05/09 00:34:27;;;;;;;79.13;40.28;;;15.70;99.90;;;;;;5019159;28;20071;-88
2023/05/09 00:36:53;;;;;;;69.82;38.22;;;15.70;99.90;;;;;;5019406;28;20037;-89
2023/05/09 00:39:18;;;;;;;76.22;40.03;;;15.60;99.90;;;;;;5019179;28;20151;-88
2023/05/09 00:41:44;;;;;;;72.57;40.70;;;15.60;99.90;;;;;;5036883;28;20040;-88
2023/05/09 00:44:10;;;;;;;78.15;40.83;;;15.50;99.90;;;;;;5022175;28;20040;-89
2023/05/09 00:46:37;;;;;;;77.07;39.92;;;15.50;99.90;;;;;;5037427;28;20073;-89
2023/05/09 00:49:03;;;;;;;70.50;37.25;;;15.40;99.90;;;;;;5048170;28;20052;-88
2023/05/09 00:51:29;;;;;;;75.20;40.67;;;15.50;99.90;;;;;;5041218;28;20400;-89
2023/05/09 00:53:55;;;;;;;75.25;40.80;;;15.50;99.90;;;;;;5031568;28;20052;-88
2023/05/09 00:56:21;;;;;;;77.13;41.55;;;15.50;99.90;;;;;;5044555;28;20037;-89
2023/05/09 00:58:47;;;;;;;79.43;39.95;;;15.50;99.90;;;;;;5038399;28;20041;-89
2023/05/09 01:01:13;;;;;;;77.57;40.38;;;15.50;99.90;;;;;;5044721;28;20126;-89
2023/05/09 01:03:40;;;;;;;70.88;38.80;;;15.40;99.90;;;;;;5025953;28;20084;-88
2023/05/09 01:06:18;;;;;;;72.47;38.80;;;15.50;99.90;;;;;;5038530;28;20138;-88
2023/05/09 01:09:00;;;;;;;82.63;40.15;;;15.50;99.90;;;;;;5053098;28;20173;-88
2023/05/09 01:11:35;;;;;;;73.63;40.65;;;15.50;99.90;;;;;;5057228;28;20049;-88
2023/05/09 01:14:23;;;;;;;79.40;41.53;;;15.50;99.90;;;;;;5041843;28;20048;-88
2023/05/09 01:17:12;;;;;;;80.93;41.63;;;15.50;99.90;;;;;;5040826;28;20051;-89
2023/05/09 01:19:48;;;;;;;84.72;43.40;;;15.50;99.90;;;;;;5037012;28;20442;-88
2023/05/09 01:22:15;;;;;;;81.05;42.72;;;15.40;99.90;;;;;;5038116;28;20041;-89
2023/05/09 01:25:03;;;;;;;80.45;41.78;;;15.40;99.90;;;;;;5049482;28;20047;-88
2023/05/09 01:27:32;;;;;;;81.22;41.17;;;15.40;99.90;;;;;;5054426;28;20040;-89
2023/05/09 01:30:01;;;;;;;82.13;40.20;;;15.30;99.90;;;;;;5053750;28;20503;-88
2023/05/09 01:32:29;;;;;;;77.10;40.05;;;15.40;99.90;;;;;;5051596;28;20552;-88
2023/05/09 01:34:58;;;;;;;73.78;40.63;;;15.30;99.90;;;;;;5038571;28;20135;-88
2023/05/09 01:37:30;;;;;;;73.85;38.47;;;15.30;99.90;;;;;;5023260;28;20171;-87
2023/05/09 01:40:05;;;;;;;71.75;38.20;;;15.30;99.90;;;;;;5042700;28;20037;-88
2023/05/09 01:42:53;;;;;;;68.88;39.38;;;15.30;99.90;;;;;;5055109;28;20389;-89
2023/05/09 01:45:20;;;;;;;67.80;38.33;;;15.30;99.90;;;;;;5038902;28;20506;-89
2023/05/09 01:47:48;;;;;;;74.30;38.67;;;15.40;99.90;;;;;;5042709;28;20044;-89
2023/05/09 01:50:15;;;;;;;75.75;40.28;;;15.40;99.90;;;;;;5042978;28;20477;-89
2023/05/09 01:52:42;;;;;;;79.93;42.00;;;15.40;99.90;;;;;;5042221;28;20270;-88
2023/05/09 01:55:09;;;;;;;81.05;40.97;;;15.40;99.90;;;;;;5040492;28;20102;-89
2023/05/09 01:57:36;;;;;;;74.78;39.58;;;15.40;99.90;;;;;;5042396;28;20106;-89
2023/05/09 02:00:03;;;;;;;79.75;41.97;;;15.40;99.90;;;;;;5043749;28;20132;-89
2023/05/09 02:02:29;;;;;;;79.28;42.22;;;15.40;99.90;;;;;;5041353;28;20043;-88
2023/05/09 02:04:56;;;;;;;82.05;42.47;;;15.40;99.90;;;;;;5043937;28;20052;-89
2023/05/09 02:07:23;;;;;;;77.78;41.13;;;15.40;99.90;;;;;;5041783;28;20481;-88
2023/05/09 02:09:52;;;;;;;83.68;41.85;;;15.40;99.90;;;;;;5036650;28;20040;-90
2023/05/09 02:12:19;;;;;;;84.32;42.25;;;15.40;99.90;;;;;;5017723;28;20048;-89
2023/05/09 02:14:44;;;;;;;78.05;42.17;;;15.30;99.90;;;;;;5036537;28;20083;-88
2023/05/09 02:17:15;;;;;;;82.75;40.75;;;15.20;99.90;;;;;;5042495;28;20076;-89
2023/05/09 02:19:42;;;;;;;82.45;40.92;;;15.30;99.90;;;;;;5035723;28;20044;-88
2023/05/09 02:22:09;;;;;;;77.75;39.13;;;15.30;99.90;;;;;;5046881;28;20033;-88
2023/05/09 02:24:35;;;;;;;80.25;42.83;;;15.30;99.90;;;;;;5041407;28;20102;-89
2023/05/09 02:27:05;;;;;;;73.60;38.80;;;15.30;99.90;;;;;;5050966;28;20036;-89
2023/05/09 02:29:39;;;;;;;77.85;41.00;;;15.30;99.90;;;;;;5037245;28;20068;-89
2023/05/09 02:32:12;;;;;;;80.32;40.78;;;15.30;99.90;;;;;;5042576;28;20075;-88
2023/05/09 02:34:39;;;;;;;78.60;41.20;;;15.30;99.90;;;;;;5046826;28;20131;-89
2023/05/09 02:37:06;;;;;;;78.75;41.92;;;15.30;99.90;;;;;;5045704;28;20492;-89
2023/05/09 02:39:32;;;;;;;79.85;42.03;;;15.30;99.90;;;;;;5045658;28;20048;-88
2023/05/09 02:42:06;;;;;;;86.47;42.13;;;15.30;99.90;;;;;;5037160;28;20041;-88
2023/05/09 02:44:33;;;;;;;83.30;42.90;;;15.30;99.90;;;;;;5044621;28;20397;-88
2023/05/09 02:46:59;;;;;;;87.25;42.80;;;15.30;99.90;;;;;;5051119;28;20066;-88
2023/05/09 02:49:25;;;;;;;85.15;42.58;;;15.30;99.90;;;;;;5040273;28;20483;-88
2023/05/09 02:51:51;;;;;;;74.80;38.28;;;15.30;99.90;;;;;;5033716;28;20046;-87
2023/05/09 02:54:17;;;;;;;80.35;40.25;;;15.20;99.90;;;;;;5023917;28;20052;-89
2023/05/09 02:56:43;;;;;;;91.80;41.85;;;15.20;99.90;;;;;;5035994;28;20040;-88
2023/05/09 02:59:08;;;;;;;87.30;42.28;;;15.20;99.90;;;;;;5055552;28;20040;-89
2023/05/09 03:01:34;;;;;;;82.82;41.13;;;15.20;99.90;;;;;;5049363;28;20037;-89
2023/05/09 03:04:01;;;;;;;78.53;40.95;;;15.20;99.90;;;;;;5041029;28;20128;-89
2023/05/09 03:06:27;;;;;;;83.18;42.83;;;15.20;99.90;;;;;;5045690;28;20045;-88
2023/05/09 03:08:52;;;;;;;88.18;42.55;;;15.20;99.90;;;;;;5038508;28;20038;-89
2023/05/09 03:11:18;;;;;;;87.28;44.63;;;15.20;99.90;;;;;;5025944;28;20124;-89
2023/05/09 03:13:44;;;;;;;92.50;44.72;;;15.20;99.90;;;;;;5036460;28;20120;-88
2023/05/09 03:16:13;;;;;;;95.05;44.22;;;15.20;99.90;;;;;;5041882;28;20476;-88
2023/05/09 03:18:39;;;;;;;94.40;42.88;;;15.20;99.90;;;;;;5052969;28;20045;-88
2023/05/09 03:21:05;;;;;;;95.72;44.83;;;15.10;99.90;;;;;;5049027;28;20036;-89
2023/05/09 03:23:31;;;;;;;96.25;44.33;;;15.20;99.90;;;;;;5053640;28;20135;-89
2023/05/09 03:25:56;;;;;;;97.30;45.15;;;15.20;99.90;;;;;;5042854;28;20036;-88
2023/05/09 03:28:22;;;;;;;93.72;44.08;;;15.10;99.90;;;;;;5041345;28;20127;-88
2023/05/09 03:30:49;;;;;;;93.35;45.40;;;14.50;99.90;;;;;;5036530;28;20125;-89
2023/05/09 03:33:15;;;;;;;85.50;43.88;;;15.10;99.90;;;;;;5037538;28;20041;-88
2023/05/09 03:35:41;;;;;;;90.32;43.83;;;15.10;99.90;;;;;;5045915;28;20044;-90
2023/05/09 03:38:06;;;;;;;89.50;44.88;;;15.10;99.90;;;;;;5035745;28;20041;-88
2023/05/09 03:40:32;;;;;;;92.25;43.97;;;15.10;99.90;;;;;;5034957;28;20037;-88
2023/05/09 03:42:58;;;;;;;89.63;44.88;;;15.20;99.90;;;;;;5018174;28;20033;-87
2023/05/09 03:45:23;;;;;;;98.50;46.95;;;15.10;99.90;;;;;;5020201;28;20119;-87
2023/05/09 03:47:49;;;;;;;105.60;47.20;;;15.10;99.90;;;;;;5043548;28;20040;-89
2023/05/09 03:50:15;;;;;;;105.30;46.90;;;15.10;99.90;;;;;;5035588;28;20079;-89
2023/05/09 03:52:41;;;;;;;115.88;49.88;;;15.20;99.90;;;;;;5035392;28;20072;-87
2023/05/09 03:55:07;;;;;;;115.50;50.72;;;15.20;99.90;;;;;;5034166;28;20094;-88
2023/05/09 03:57:34;;;;;;;103.82;47.17;;;15.10;99.90;;;;;;5050054;28;20338;-88
2023/05/09 04:00:01;;;;;;;109.43;48.90;;;15.10;99.90;;;;;;5035006;28;20401;-89
2023/05/09 04:02:27;;;;;;;108.60;46.30;;;15.10;99.90;;;;;;5039270;28;20136;-86
2023/05/09 04:04:53;;;;;;;108.97;48.88;;;15.10;99.90;;;;;;5040753;28;20040;-88
2023/05/09 04:07:19;;;;;;;103.38;47.38;;;15.10;99.90;;;;;;5036039;28;20025;-88
2023/05/09 04:09:45;;;;;;;122.88;52.85;;;15.10;99.90;;;;;;5020463;28;20041;-87
2023/05/09 04:12:11;;;;;;;114.28;49.47;;;15.10;99.90;;;;;;5054908;28;20409;-88
2023/05/09 04:14:37;;;;;;;96.35;47.95;;;15.00;99.90;;;;;;5024044;28;20117;-88
2023/05/09 04:17:03;;;;;;;83.63;41.08;;;15.10;99.90;;;;;;5042472;28;20033;-89
2023/05/09 04:19:29;;;;;;;96.70;47.80;;;15.00;99.90;;;;;;5035908;28;20070;-89
2023/05/09 04:21:55;;;;;;;94.88;47.00;;;15.00;99.90;;;;;;5044775;28;20036;-88
2023/05/09 04:24:21;;;;;;;115.15;49.50;;;15.00;99.90;;;;;;5058311;28;20037;-89
2023/05/09 04:26:47;;;;;;;100.30;49.25;;;15.00;99.90;;;;;;5058507;28;20050;-88
2023/05/09 04:29:12;;;;;;;99.70;47.50;;;15.00;99.90;;;;;;5028396;28;20037;-89
2023/05/09 04:31:38;;;;;;;106.07;49.70;;;15.00;99.90;;;;;;5040215;28;20401;-88
2023/05/09 04:34:04;;;;;;;106.75;49.05;;;15.00;99.90;;;;;;5040398;28;20377;-87
2023/05/09 04:36:32;;;;;;;100.60;47.15;;;15.10;99.90;;;;;;5042949;28;20048;-89
2023/05/09 04:38:58;;;;;;;94.13;43.58;;;15.00;99.90;;;;;;5057633;28;20129;-88
2023/05/09 04:41:24;;;;;;;111.95;50.50;;;15.10;99.90;;;;;;5038561;28;20066;-88
2023/05/09 04:43:51;;;;;;;118.78;51.08;;;15.10;99.90;;;;;;5024028;28;20140;-90
2023/05/09 04:46:17;;;;;;;95.22;46.83;;;15.10;99.90;;;;;;5044557;28;20037;-88
2023/05/09 04:48:42;;;;;;;100.88;47.10;;;15.10;99.90;;;;;;5038817;28;20062;-89
2023/05/09 04:51:08;;;;;;;92.22;47.30;;;15.10;99.90;;;;;;5038832;28;20041;-88
2023/05/09 04:53:34;;;;;;;103.25;48.85;;;15.10;99.90;;;;;;5043993;28;20116;-89
2023/05/09 04:56:00;;;;;;;88.53;43.03;;;15.10;99.90;;;;;;5040495;28;20050;-89
2023/05/09 04:58:26;;;;;;;113.35;50.58;;;15.10;99.90;;;;;;5057960;28;20040;-88
2023/05/09 05:00:52;;;;;;;111.22;51.40;;;15.10;99.90;;;;;;5053759;28;20227;-88
2023/05/09 05:03:18;;;;;;;118.22;52.10;;;15.10;99.90;;;;;;5057820;28;20468;-88
2023/05/09 05:05:44;;;;;;;110.82;48.35;;;15.10;99.90;;;;;;5028825;28;20036;-88
2023/05/09 05:08:09;;;;;;;123.13;53.13;;;15.10;99.90;;;;;;5019096;28;20033;-89
2023/05/09 05:10:35;;;;;;;106.05;47.67;;;15.10;99.90;;;;;;5055240;28;20051;-89
2023/05/09 05:13:01;;;;;;;108.45;48.97;;;15.10;99.90;;;;;;5073599;28;20044;-89
2023/05/09 05:15:27;;;;;;;124.90;52.63;;;15.10;99.90;;;;;;5044224;28;20048;-87
2023/05/09 05:17:53;;;;;;;99.05;45.42;;;15.10;99.90;;;;;;5042926;28;20075;-88
2023/05/09 05:20:18;;;;;;;107.63;50.03;;;15.20;99.90;;;;;;5037945;28;20037;-87
2023/05/09 05:22:44;;;;;;;124.05;53.95;;;15.20;99.90;;;;;;5043568;28;20396;-87
2023/05/09 05:25:10;;;;;;;100.70;47.85;;;15.20;99.90;;;;;;5044630;28;20058;-88
2023/05/09 05:27:36;;;;;;;115.57;52.13;;;15.20;99.90;;;;;;5053074;28;20045;-88
2023/05/09 05:30:02;;;;;;;96.65;46.03;;;15.20;99.90;;;;;;5053999;28;20047;-89
2023/05/09 05:32:28;;;;;;;88.78;43.97;;;15.20;99.90;;;;;;5047584;28;20040;-88
2023/05/09 05:34:53;;;;;;;125.50;53.08;;;15.20;99.90;;;;;;5039677;28;20041;-88
2023/05/09 05:37:19;;;;;;;111.38;52.05;;;15.30;99.90;;;;;;5037356;28;20083;-89
2023/05/09 05:39:45;;;;;;;95.15;45.90;;;15.30;99.90;;;;;;5003748;28;20048;-88
2023/05/09 05:42:10;;;;;;;100.22;49.00;;;15.30;99.90;;;;;;5020599;28;20072;-88
2023/05/09 05:44:36;;;;;;;82.20;41.30;;;15.40;99.90;;;;;;5037073;28;20049;-88
2023/05/09 05:47:02;;;;;;;102.85;48.50;;;15.40;99.90;;;;;;5036837;28;20094;-88
2023/05/09 05:49:28;;;;;;;89.75;45.95;;;15.40;99.90;;;;;;5037309;28;20037;-89
2023/05/09 05:51:53;;;;;;;106.05;51.22;;;15.40;99.90;;;;;;5017144;28;20041;-87
2023/05/09 05:54:19;;;;;;;94.07;44.13;;;15.40;99.90;;;;;;5040453;28;20036;-89
2023/05/09 05:56:45;;;;;;;104.68;47.08;;;15.50;99.90;;;;;;5048932;28;20051;-88
2023/05/09 05:59:10;;;;;;;94.93;46.90;;;15.40;99.90;;;;;;5040915;28;20102;-87
2023/05/09 06:01:36;;;;;;;91.43;47.22;;;15.50;99.90;;;;;;5043717;28;20175;-86
2023/05/09 06:04:02;;;;;;;82.38;43.88;;;15.50;99.90;;;;;;5046583;28;20105;-86
2023/05/09 06:06:28;;;;;;;95.78;48.65;;;15.50;99.90;;;;;;5021037;28;20123;-87
2023/05/09 06:08:54;;;;;;;96.63;49.22;;;15.60;99.90;;;;;;5028859;28;20044;-87
2023/05/09 06:11:20;;;;;;;81.85;42.42;;;15.60;99.90;;;;;;5046221;28;20059;-88
2023/05/09 06:13:46;;;;;;;80.85;41.95;;;15.70;99.90;;;;;;5011773;28;20183;-88
2023/05/09 06:16:12;;;;;;;89.13;45.85;;;15.70;99.90;;;;;;5046243;28;20119;-88
2023/05/09 06:18:39;;;;;;;80.22;42.50;;;15.70;99.90;;;;;;5039893;28;20433;-87
2023/05/09 06:21:08;;;;;;;98.20;49.42;;;15.70;99.90;;;;;;5037648;28;20132;-86
2023/05/09 06:23:35;;;;;;;92.57;45.55;;;15.70;99.90;;;;;;5015906;28;20033;-87
2023/05/09 06:26:02;;;;;;;89.82;43.67;;;15.70;99.90;;;;;;5026951;28;20044;-86
2023/05/09 06:28:28;;;;;;;100.68;48.17;;;15.70;99.90;;;;;;5036486;28;20110;-87
2023/05/09 06:30:54;;;;;;;99.38;48.30;;;15.70;99.90;;;;;;5052929;28;20037;-87
2023/05/09 06:33:20;;;;;;;91.28;46.65;;;15.70;99.90;;;;;;5023058;28;20071;-88
2023/05/09 06:35:46;;;;;;;92.93;47.38;;;15.80;99.90;;;;;;5039772;28;20120;-87
2023/05/09 06:38:11;;;;;;;94.93;47.17;;;15.80;99.90;;;;;;5033861;28;20033;-87
2023/05/09 06:40:37;;;;;;;87.45;44.75;;;15.80;99.90;;;;;;5036808;28;20041;-87
2023/05/09 06:43:03;;;;;;;84.93;45.22;;;15.90;99.90;;;;;;5034343;28;20116;-88
2023/05/09 06:45:29;;;;;;;87.80;45.55;;;16.00;99.90;;;;;;5039242;28;20033;-87
2023/05/09 06:47:55;;;;;;;83.97;43.50;;;16.00;99.90;;;;;;5024858;28;20076;-87
2023/05/09 06:50:21;;;;;;;78.05;40.42;;;16.10;99.90;;;;;;5032303;28;20036;-87
2023/05/09 06:52:47;;;;;;;71.00;35.35;;;16.10;99.90;;;;;;5036552;28;20037;-87
2023/05/09 06:55:13;;;;;;;99.00;44.90;;;16.10;99.90;;;;;;5035461;28;20044;-87
2023/05/09 06:57:39;;;;;;;73.10;36.72;;;16.20;99.90;;;;;;5053646;28;20195;-86
2023/05/09 07:00:06;;;;;;;82.57;44.17;;;16.20;99.90;;;;;;5023239;28;20033;-86
2023/05/09 07:02:33;;;;;;;74.05;39.20;;;16.20;99.90;;;;;;5034372;28;20049;-85
2023/05/09 07:04:58;;;;;;;80.07;43.88;;;16.30;99.90;;;;;;5035269;28;20570;-87
2023/05/09 07:07:24;;;;;;;77.13;43.38;;;16.20;99.90;;;;;;5006019;28;20037;-87
2023/05/09 07:09:50;;;;;;;71.60;38.85;;;16.30;99.90;;;;;;5016161;28;20452;-85
2023/05/09 07:12:16;;;;;;;77.70;41.63;;;16.30;99.90;;;;;;5048672;28;20037;-87
2023/05/09 07:14:41;;;;;;;80.32;44.85;;;16.40;99.90;;;;;;5032144;28;20225;-87
2023/05/09 07:17:10;;;;;;;73.43;41.92;;;16.40;99.90;;;;;;5042102;28;20045;-86
2023/05/09 07:19:35;;;;;;;64.68;35.10;;;16.40;99.90;;;;;;5044415;28;20485;-87
2023/05/09 07:22:01;;;;;;;56.47;32.78;;;16.30;99.90;;;;;;5033938;28;20041;-87
2023/05/09 07:24:27;;;;;;;58.63;35.40;;;16.40;99.90;;;;;;5022763;28;20029;-86
2023/05/09 07:26:53;;;;;;;62.30;35.53;;;16.30;99.90;;;;;;5017195;28;20097;-86
2023/05/09 07:29:19;;;;;;;62.00;34.88;;;16.40;99.90;;;;;;5013995;28;20037;-86
2023/05/09 07:31:45;;;;;;;52.08;30.38;;;16.40;99.90;;;;;;5026333;28;20080;-86
2023/05/09 07:34:10;;;;;;;49.20;29.38;;;16.40;99.90;;;;;;5032446;28;20033;-86
2023/05/09 07:36:37;;;;;;;52.50;30.75;;;16.50;99.90;;;;;;5020732;28;20037;-85
2023/05/09 07:39:03;;;;;;;63.47;36.30;;;16.50;99.90;;;;;;5051650;28;20063;-86
2023/05/09 07:41:30;;;;;;;55.42;32.60;;;16.50;99.90;;;;;;5028169;28;20048;-86
2023/05/09 07:43:56;;;;;;;57.05;33.28;;;16.50;99.90;;;;;;5014673;28;20052;-86
2023/05/09 07:46:21;;;;;;;54.78;32.63;;;16.60;99.90;;;;;;5034683;28;20037;-87
2023/05/09 07:48:47;;;;;;;42.47;27.10;;;16.60;99.90;;;;;;5033561;28;20033;-86
2023/05/09 07:51:13;;;;;;;46.85;27.73;;;16.60;99.90;;;;;;5015507;28;20040;-87
2023/05/09 07:53:39;;;;;;;41.80;28.33;;;16.70;99.90;;;;;;5013927;28;20563;-86
2023/05/09 07:56:07;;;;;;;44.50;27.00;;;16.60;99.90;;;;;;5021365;28;20097;-87
2023/05/09 07:58:33;;;;;;;43.47;27.63;;;16.70;99.90;;;;;;5021854;28;20048;-86
2023/05/09 08:00:58;;;;;;;39.28;23.38;;;16.70;99.90;;;;;;5034576;28;20040;-86
2023/05/09 08:03:24;;;;;;;32.75;20.88;;;16.70;99.90;;;;;;5021689;28;20128;-87
2023/05/09 08:05:54;;;;;;;36.35;21.75;;;16.80;99.90;;;;;;5037435;28;20556;-87
2023/05/09 08:08:21;;;;;;;39.72;23.75;;;16.80;99.90;;;;;;5035783;28;20041;-86
2023/05/09 08:10:46;;;;;;;39.30;25.73;;;16.80;99.90;;;;;;5037486;28;20073;-86
2023/05/09 08:13:12;;;;;;;37.03;25.35;;;16.80;99.90;;;;;;5028925;28;20072;-87
2023/05/09 08:15:38;;;;;;;42.60;25.73;;;16.80;99.90;;;;;;5021217;28;20044;-86
2023/05/09 08:18:03;;;;;;;35.10;22.98;;;16.80;99.90;;;;;;5018064;28;20033;-86
2023/05/09 08:20:30;;;;;;;38.08;24.13;;;16.80;99.90;;;;;;5029137;28;20402;-86
2023/05/09 08:22:56;;;;;;;37.33;24.42;;;16.00;99.90;;;;;;5047302;28;20045;-86
2023/05/09 08:25:22;;;;;;;40.30;25.90;;;16.80;99.90;;;;;;5021191;28;20040;-87
2023/05/09 08:27:48;;;;;;;34.50;22.10;;;16.80;99.90;;;;;;5019742;28;20382;-86
2023/05/09 08:30:14;;;;;;;32.17;20.95;;;16.80;99.90;;;;;;5040070;28;20044;-86
2023/05/09 08:32:40;;;;;;;39.92;24.77;;;16.90;99.90;;;;;;5039268;28;20435;-86
2023/05/09 08:35:07;;;;;;;36.00;22.83;;;16.90;99.90;;;;;;5034972;28;20116;-86
2023/05/09 08:37:36;;;;;;;36.08;23.83;;;16.90;99.90;;;;;;5020890;28;20037;-87
2023/05/09 08:40:09;;;;;;;33.00;22.00;;;17.00;99.90;;;;;;5017760;28;20072;-86
2023/05/09 08:42:36;;;;;;;32.72;20.98;;;17.10;99.90;;;;;;5017074;28;20037;-87
2023/05/09 08:45:10;;;;;;;35.88;21.83;;;17.10;99.90;;;;;;5037633;28;20037;-85
2023/05/09 08:47:39;;;;;;;31.50;19.10;;;17.20;99.90;;;;;;5043231;28;20481;-86
2023/05/09 08:50:06;;;;;;;33.95;21.40;;;17.20;99.90;;;;;;5058091;28;20029;-87
2023/05/09 08:52:32;;;;;;;33.78;21.98;;;17.30;99.90;;;;;;5027144;28;20185;-86
2023/05/09 08:55:05;;;;;;;33.00;20.33;;;17.30;99.90;;;;;;5021124;28;20039;-86
2023/05/09 08:57:34;;;;;;;31.80;20.40;;;17.40;99.90;;;;;;5052839;28;20041;-87
2023/05/09 09:00:00;;;;;;;33.67;21.73;;;17.50;99.90;;;;;;5032807;28;20095;-86
2023/05/09 09:02:25;;;;;;;29.27;18.63;;;17.60;99.90;;;;;;5049536;28;20044;-87
2023/05/09 09:04:53;;;;;;;32.67;20.80;;;17.60;99.90;;;;;;5033821;28;20489;-86
2023/05/09 09:07:19;;;;;;;28.77;19.02;;;17.70;99.90;;;;;;5041639;28;20079;-84
2023/05/09 09:09:47;;;;;;;26.90;18.15;;;17.70;99.90;;;;;;5047769;28;20073;-87
2023/05/09 09:12:15;;;;;;;30.58;18.70;;;17.80;99.90;;;;;;5054542;28;20036;-87
2023/05/09 09:14:51;;;;;;;26.65;18.48;;;17.90;99.90;;;;;;5033216;28;20049;-87
2023/05/09 09:17:18;;;;;;;;;;;17.90;99.90;;;;;;5038170;28;20033;-86
2023/05/09 09:19:47;;;;;;;25.23;16.50;;;18.00;99.90;;;;;;5055002;28;19917;-86
2023/05/09 09:22:15;;;;;;;26.13;17.60;;;18.10;99.90;;;;;;5034391;28;20037;-87
2023/05/09 09:24:41;;;;;;;25.45;15.95;;;18.20;99.90;;;;;;5029244;28;20591;-85
2023/05/09 09:27:09;;;;;;;25.98;15.98;;;18.20;99.90;;;;;;5033975;28;20033;-88
2023/05/09 09:29:37;;;;;;;25.45;16.80;;;18.30;99.90;;;;;;5049207;28;20073;-89
2023/05/09 09:32:04;;;;;;;28.95;17.55;;;18.30;99.90;;;;;;5026302;28;20033;-86
2023/05/09 09:34:30;;;;;;;24.60;17.60;;;18.30;99.90;;;;;;5041244;28;20041;-85
2023/05/09 09:36:56;;;;;;;27.83;19.60;;;18.30;99.90;;;;;;5036617;28;20124;-85
2023/05/09 09:39:22;;;;;;;27.75;18.00;;;18.40;99.90;;;;;;5052037;28;20504;-91
2023/05/09 09:41:48;;;;;;;22.52;16.13;;;18.40;99.90;;;;;;5038587;28;20037;-87
2023/05/09 09:44:16;;;;;;;25.60;16.88;;;18.50;99.90;;;;;;5035246;28;20044;-87
2023/05/09 09:46:50;;;;;;;22.00;15.52;;;18.50;99.90;;;;;;5056311;28;20045;-87
2023/05/09 09:49:18;;;;;;;21.10;15.82;;;18.60;99.90;;;;;;5024702;28;20401;-87
2023/05/09 09:51:44;;;;;;;21.85;15.18;;;18.60;99.90;;;;;;5040498;28;20049;-88
2023/05/09 09:54:11;;;;;;;20.60;15.05;;;18.70;99.90;;;;;;5054526;28;20037;-86
2023/05/09 09:56:41;;;;;;;20.50;14.60;;;18.70;99.90;;;;;;5037510;28;20446;-86
2023/05/09 09:59:12;;;;;;;18.77;13.18;;;18.80;99.90;;;;;;5030153;28;20046;-85
2023/05/09 10:02:02;;;;;;;22.88;16.40;;;18.80;99.90;;;;;;5037169;28;20092;-86
2023/05/09 10:04:31;;;;;;;18.42;14.32;;;18.90;99.90;;;;;;5053601;28;20374;-87
2023/05/09 10:06:58;;;;;;;18.40;13.02;;;19.00;99.90;;;;;;5050493;28;20044;-88
2023/05/09 10:09:26;;;;;;;18.85;13.23;;;19.10;99.90;;;;;;5035659;28;20040;-86
2023/05/09 10:11:53;;;;;;;16.00;11.55;;;19.10;99.90;;;;;;5022075;28;20040;-87
2023/05/09 10:14:24;;;;;;;15.80;12.07;;;18.70;99.90;;;;;;5053585;28;20036;-88
2023/05/09 10:16:56;;;;;;;18.77;12.82;;;19.10;99.90;;;;;;5028642;28;20082;-86
2023/05/09 10:19:25;;;;;;;16.70;13.05;;;19.10;99.90;;;;;;5031590;28;20048;-87
2023/05/09 10:21:54;;;;;;;16.40;13.02;;;19.10;99.90;;;;;;5035051;28;20036;-88
2023/05/09 10:24:28;;;;;;;15.18;12.25;;;19.20;99.90;;;;;;5034663;28;20045;-88
2023/05/09 10:27:15;;;;;;;16.13;12.52;;;19.20;99.90;;;;;;5026633;28;20069;-85
2023/05/09 10:29:48;;;;;;;15.95;10.40;;;19.10;99.90;;;;;;5053240;28;20036;-87
2023/05/09 10:32:22;;;;;;;17.52;13.60;;;19.00;99.90;;;;;;5034352;28;20033;-89
2023/05/09 10:34:52;;;;;;;20.13;14.52;;;18.90;99.90;;;;;;5044279;28;20111;-90
2023/05/09 10:37:20;;;;;;;18.55;13.57;;;18.90;99.90;;;;;;5038586;28;20071;-90
2023/05/09 10:39:51;;;;;;;19.90;14.60;;;18.90;99.90;;;;;;5047622;28;20033;-90
2023/05/09 10:42:19;;;;;;;19.35;15.32;;;18.90;99.90;;;;;;5025005;28;20128;-89
2023/05/09 10:44:46;;;;;;;19.77;13.73;;;18.90;99.90;;;;;;5046619;28;20025;-91
2023/05/09 10:47:13;;;;;;;18.42;15.07;;;18.90;99.90;;;;;;5057003;28;20044;-93
2023/05/09 10:49:39;;;;;;;22.48;15.73;;;18.90;99.90;;;;;;5029487;28;20033;-92
2023/05/09 10:52:05;;;;;;;18.60;12.90;;;18.80;99.90;;;;;;5036474;28;20124;-92
2023/05/09 10:54:32;;;;;;;22.90;16.15;;;18.80;99.90;;;;;;5024981;28;20076;-93
2023/05/09 10:56:59;;;;;;;20.58;15.63;;;18.80;99.90;;;;;;5051965;28;20101;-93
2023/05/09 10:59:39;;;;;;;27.92;16.95;;;18.80;99.90;;;;;;5035230;28;20040;-91
2023/05/09 11:02:17;;;;;;;20.45;16.90;;;18.70;99.90;;;;;;5062682;28;20370;-87
2023/05/09 11:04:44;;;;;;;21.67;16.50;;;18.60;99.90;;;;;;5034627;28;20037;-88
2023/05/09 11:07:26;;;;;;;21.63;16.80;;;18.60;99.90;;;;;;5047806;28;20388;-87
2023/05/09 11:10:09;;;;;;;21.67;15.32;;;18.60;99.90;;;;;;5027934;28;20106;-90
2023/05/09 11:13:00;;;;;;;22.20;16.80;;;18.50;99.90;;;;;;5041429;28;20530;-87
2023/05/09 11:15:26;;;;;;;19.70;16.75;;;18.50;99.90;;;;;;5009859;28;20037;-85
2023/05/09 11:18:12;;;;;;;22.27;17.20;;;18.40;99.90;;;;;;5023199;28;20041;-85
2023/05/09 11:20:47;;;;;;;21.73;17.45;;;18.50;99.90;;;;;;5048452;28;20056;-86
2023/05/09 11:23:18;;;;;;;20.23;16.00;;;18.60;99.90;;;;;;5034200;28;20036;-87
2023/05/09 11:25:48;;;;;;;20.45;17.38;;;18.70;99.90;;;;;;5067395;28;20040;-87
2023/05/09 11:28:31;;;;;;;25.30;17.23;;;18.70;99.90;;;;;;5047388;28;20029;-86
2023/05/09 11:31:17;;;;;;;23.90;16.95;;;18.90;99.90;;;;;;5055368;28;20048;-86
2023/05/09 11:33:45;;;;;;;23.60;17.08;;;18.90;99.90;;;;;;5037724;28;20076;-86
2023/05/09 11:36:19;;;;;;;21.33;16.20;;;19.00;99.90;;;;;;5056071;28;20074;-85
2023/05/09 11:38:58;;;;;;;20.08;15.30;;;19.00;99.90;;;;;;5033731;28;20045;-88
2023/05/09 11:41:24;;;;;;;21.10;17.00;;;19.00;99.90;;;;;;5027281;28;20037;-86
2023/05/09 11:43:50;;;;;;;18.85;15.80;;;19.00;99.90;;;;;;5053922;28;20085;-85
2023/05/09 11:46:16;;;;;;;20.48;16.25;;;19.10;99.90;;;;;;5047611;28;20040;-86
2023/05/09 11:48:42;;;;;;;18.42;15.75;;;19.10;99.90;;;;;;5021987;28;20037;-84
2023/05/09 11:51:18;;;;;;;23.83;17.45;;;19.00;99.90;;;;;;5056204;28;20499;-86
2023/05/09 11:53:48;;;;;;;20.27;17.02;;;18.90;99.90;;;;;;5037781;28;20489;-86
2023/05/09 11:56:15;;;;;;;20.45;17.20;;;18.90;99.90;;;;;;5049867;28;20068;-86
2023/05/09 11:58:41;;;;;;;20.90;16.58;;;18.80;99.90;;;;;;5033499;28;20398;-86
2023/05/09 12:01:07;;;;;;;20.15;16.38;;;18.70;99.90;;;;;;5025111;28;20041;-87
2023/05/09 12:03:33;;;;;;;21.20;16.83;;;18.60;99.90;;;;;;5023683;28;20040;-87
2023/05/09 12:06:00;;;;;;;19.20;15.40;;;18.50;99.90;;;;;;5039791;28;20528;-86
2023/05/09 12:08:27;;;;;;;21.98;17.17;;;18.40;99.90;;;;;;5038338;28;20037;-86
2023/05/09 12:10:53;;;;;;;19.83;16.88;;;18.40;99.90;;;;;;5038297;28;20044;-87
2023/05/09 12:13:18;;;;;;;22.65;17.10;;;18.30;99.90;;;;;;5037716;28;20400;-86
2023/05/09 12:15:44;;;;;;;21.35;16.58;;;18.30;99.90;;;;;;5035530;28;20396;-85
2023/05/09 12:18:10;;;;;;;20.90;17.90;;;18.30;99.90;;;;;;5033021;28;20037;-84
2023/05/09 12:20:43;;;;;;;24.13;17.80;;;18.30;99.90;;;;;;5029663;28;20431;-86
2023/05/09 12:23:11;;;;;;;21.77;17.38;;;18.30;99.90;;;;;;5069492;28;20054;-85
2023/05/09 12:25:37;;;;;;;20.90;17.15;;;18.30;99.90;;;;;;5056544;28;20033;-86
2023/05/09 12:28:04;;;;;;;20.17;18.00;;;18.30;99.90;;;;;;5025951;28;20037;-86